sensor_id;sensor_type;location;lat;lon;timestamp;pressure;altitude;pressure_sealevel;temperature;humidity
16016;BME280;8112;53.592;10.184;2022-09-03T00:04:54;101459.47;;;16.56;100.00
16016;BME280;8112;53.592;10.184;2022-09-03T00:10:02;101457.03;;;16.53;100.00
16016;BME280;8112;53.592;10.184;2022-09-03T00:15:07;101448.63;;;16.46;100.00
16016;BME280;8112;53.592;10.184;2022-09-03T00:20:15;101452.50;;;16.42;100.00
16016;BME280;8112;53.592;10.184;2022-09-03T00:25:22;101459.19;;;16.35;100.00
16016;BME280;8112;53.592;10.184;2022-09-03T00:30:25;101458.59;;;16.31;100.00
16016;BME280;8112;53.592;10.184;2022-09-03T00:35:32;101458.69;;;16.30;100.00
16016;BME280;8112;53.592;10.184;2022-09-03T00:40:46;101454.13;;;16.19;100.00
16016;BME280;8112;53.592;10.184;2022-09-03T00:45:57;101455.38;;;16.26;100.00
16016;BME280;8112;53.592;10.184;2022-09-03T00:51:15;101455.19;;;16.29;100.00
16016;BME280;8112;53.592;10.184;2022-09-03T00:56:36;101447.63;;;16.23;100.00
16016;BME280;8112;53.592;10.184;2022-09-03T01:01:46;101451.59;;;16.17;100.00
16016;BME280;8112;53.592;10.184;2022-09-03T01:06:58;101457.75;;;16.18;100.00
16016;BME280;8112;53.592;10.184;2022-09-03T01:12:09;101455.66;;;16.10;100.00
16016;BME280;8112;53.592;10.184;2022-09-03T01:17:21;101462.16;;;16.06;100.00
16016;BME280;8112;53.592;10.184;2022-09-03T01:28:36;101441.94;;;16.03;100.00
16016;BME280;8112;53.592;10.184;2022-09-03T01:33:46;101448.88;;;15.93;100.00
16016;BME280;8112;53.592;10.184;2022-09-03T01:38:54;101443.84;;;15.88;100.00
16016;BME280;8112;53.592;10.184;2022-09-03T01:44:02;101446.59;;;15.87;100.00
16016;BME280;8112;53.592;10.184;2022-09-03T01:49:13;101446.09;;;15.81;100.00
16016;BME280;8112;53.592;10.184;2022-09-03T01:54:44;101442.91;;;15.76;100.00
16016;BME280;8112;53.592;10.184;2022-09-03T01:59:55;101434.81;;;15.78;100.00
16016;BME280;8112;53.592;10.184;2022-09-03T02:05:02;101433.56;;;15.71;100.00
16016;BME280;8112;53.592;10.184;2022-09-03T02:10:08;101440.25;;;15.76;100.00
16016;BME280;8112;53.592;10.184;2022-09-03T02:15:15;101433.34;;;15.74;100.00
16016;BME280;8112;53.592;10.184;2022-09-03T02:20:20;101439.06;;;15.80;100.00
16016;BME280;8112;53.592;10.184;2022-09-03T02:25:28;101439.50;;;15.74;100.00
16016;BME280;8112;53.592;10.184;2022-09-03T02:30:32;101432.69;;;15.70;100.00
16016;BME280;8112;53.592;10.184;2022-09-03T02:35:34;101440.56;;;15.72;100.00
16016;BME280;8112;53.592;10.184;2022-09-03T02:40:35;101436.09;;;15.59;100.00
16016;BME280;8112;53.592;10.184;2022-09-03T02:45:42;101440.16;;;15.52;100.00
16016;BME280;8112;53.592;10.184;2022-09-03T02:50:46;101443.97;;;15.48;100.00
16016;BME280;8112;53.592;10.184;2022-09-03T02:55:48;101445.53;;;15.50;100.00
16016;BME280;8112;53.592;10.184;2022-09-03T03:00:51;101448.63;;;15.44;100.00
16016;BME280;8112;53.592;10.184;2022-09-03T03:05:54;101439.59;;;15.34;100.00
16016;BME280;8112;53.592;10.184;2022-09-03T03:10:57;101440.00;;;15.28;100.00
16016;BME280;8112;53.592;10.184;2022-09-03T03:16:03;101445.75;;;15.21;100.00
16016;BME280;8112;53.592;10.184;2022-09-03T03:21:07;101444.56;;;15.25;100.00
16016;BME280;8112;53.592;10.184;2022-09-03T03:26:11;101438.53;;;15.23;100.00
16016;BME280;8112;53.592;10.184;2022-09-03T03:31:15;101443.72;;;15.25;100.00
16016;BME280;8112;53.592;10.184;2022-09-03T03:36:17;101438.91;;;15.17;100.00
16016;BME280;8112;53.592;10.184;2022-09-03T03:41:21;101451.56;;;15.14;100.00
16016;BME280;8112;53.592;10.184;2022-09-03T03:46:28;101437.41;;;15.00;100.00
16016;BME280;8112;53.592;10.184;2022-09-03T03:51:30;101449.63;;;15.03;100.00
16016;BME280;8112;53.592;10.184;2022-09-03T03:56:32;101449.81;;;15.00;100.00
16016;BME280;8112;53.592;10.184;2022-09-03T04:01:36;101453.41;;;14.99;100.00
16016;BME280;8112;53.592;10.184;2022-09-03T04:06:38;101456.84;;;15.01;100.00
16016;BME280;8112;53.592;10.184;2022-09-03T04:11:39;101454.31;;;15.12;100.00
16016;BME280;8112;53.592;10.184;2022-09-03T04:16:43;101455.13;;;15.00;100.00
16016;BME280;8112;53.592;10.184;2022-09-03T04:21:46;101464.69;;;15.02;100.00
16016;BME280;8112;53.592;10.184;2022-09-03T04:26:47;101454.94;;;15.03;100.00
16016;BME280;8112;53.592;10.184;2022-09-03T04:31:51;101442.94;;;14.97;100.00
16016;BME280;8112;53.592;10.184;2022-09-03T04:37:11;101448.94;;;14.86;100.00
16016;BME280;8112;53.592;10.184;2022-09-03T04:42:12;101446.84;;;14.91;100.00
16016;BME280;8112;53.592;10.184;2022-09-03T04:47:15;101455.75;;;14.90;100.00
16016;BME280;8112;53.592;10.184;2022-09-03T04:52:17;101448.13;;;14.99;100.00
16016;BME280;8112;53.592;10.184;2022-09-03T04:57:19;101460.00;;;14.93;100.00
16016;BME280;8112;53.592;10.184;2022-09-03T05:02:24;101467.03;;;14.94;100.00
16016;BME280;8112;53.592;10.184;2022-09-03T05:07:26;101467.97;;;14.93;100.00
16016;BME280;8112;53.592;10.184;2022-09-03T05:12:38;101473.19;;;15.07;100.00
16016;BME280;8112;53.592;10.184;2022-09-03T05:17:41;101461.00;;;15.05;100.00
16016;BME280;8112;53.592;10.184;2022-09-03T05:22:42;101461.94;;;15.04;100.00
16016;BME280;8112;53.592;10.184;2022-09-03T05:27:44;101455.72;;;15.18;100.00
16016;BME280;8112;53.592;10.184;2022-09-03T05:32:47;101454.03;;;15.43;100.00
16016;BME280;8112;53.592;10.184;2022-09-03T05:37:49;101445.44;;;15.78;100.00
16016;BME280;8112;53.592;10.184;2022-09-03T05:42:54;101441.19;;;15.88;100.00
16016;BME280;8112;53.592;10.184;2022-09-03T05:48:09;101452.34;;;16.06;100.00
16016;BME280;8112;53.592;10.184;2022-09-03T05:53:10;101453.28;;;16.31;100.00
16016;BME280;8112;53.592;10.184;2022-09-03T05:58:12;101462.09;;;16.32;100.00
16016;BME280;8112;53.592;10.184;2022-09-03T06:03:17;101459.66;;;16.29;100.00
16016;BME280;8112;53.592;10.184;2022-09-03T06:08:19;101467.44;;;16.56;100.00
16016;BME280;8112;53.592;10.184;2022-09-03T06:13:21;101470.22;;;16.79;100.00
16016;BME280;8112;53.592;10.184;2022-09-03T06:18:27;101464.09;;;17.03;100.00
16016;BME280;8112;53.592;10.184;2022-09-03T06:23:32;101458.63;;;17.40;100.00
16016;BME280;8112;53.592;10.184;2022-09-03T06:28:35;101460.84;;;17.58;100.00
16016;BME280;8112;53.592;10.184;2022-09-03T06:33:39;101457.69;;;17.64;100.00
16016;BME280;8112;53.592;10.184;2022-09-03T06:38:42;101462.78;;;17.78;100.00
16016;BME280;8112;53.592;10.184;2022-09-03T06:43:44;101466.69;;;17.97;100.00
16016;BME280;8112;53.592;10.184;2022-09-03T06:48:48;101461.00;;;18.13;100.00
16016;BME280;8112;53.592;10.184;2022-09-03T06:53:52;101454.81;;;18.13;100.00
16016;BME280;8112;53.592;10.184;2022-09-03T06:59:02;101465.19;;;18.50;100.00
16016;BME280;8112;53.592;10.184;2022-09-03T07:04:06;101474.69;;;18.75;100.00
16016;BME280;8112;53.592;10.184;2022-09-03T07:09:10;101473.94;;;18.85;100.00
16016;BME280;8112;53.592;10.184;2022-09-03T07:14:13;101473.03;;;18.95;100.00
16016;BME280;8112;53.592;10.184;2022-09-03T07:19:17;101478.38;;;19.07;100.00
16016;BME280;8112;53.592;10.184;2022-09-03T07:24:19;101473.13;;;19.17;100.00
16016;BME280;8112;53.592;10.184;2022-09-03T07:29:28;101471.47;;;19.68;100.00
16016;BME280;8112;53.592;10.184;2022-09-03T07:34:31;101475.47;;;19.84;99.80
16016;BME280;8112;53.592;10.184;2022-09-03T07:39:35;101474.94;;;19.90;97.46
16016;BME280;8112;53.592;10.184;2022-09-03T07:44:36;101477.56;;;20.01;96.40
16016;BME280;8112;53.592;10.184;2022-09-03T07:49:39;101463.97;;;20.24;96.12
16016;BME280;8112;53.592;10.184;2022-09-03T07:54:41;101470.69;;;20.79;94.27
16016;BME280;8112;53.592;10.184;2022-09-03T07:59:44;101478.34;;;21.03;91.25
16016;BME280;8112;53.592;10.184;2022-09-03T08:04:47;101474.06;;;21.20;91.06
16016;BME280;8112;53.592;10.184;2022-09-03T08:09:48;101472.53;;;21.28;88.42
16016;BME280;8112;53.592;10.184;2022-09-03T08:14:50;101459.13;;;21.28;86.71
16016;BME280;8112;53.592;10.184;2022-09-03T08:19:53;101460.63;;;21.60;87.51
16016;BME280;8112;53.592;10.184;2022-09-03T08:24:56;101455.81;;;22.01;84.76
16016;BME280;8112;53.592;10.184;2022-09-03T08:29:59;101452.47;;;22.17;82.11
16016;BME280;8112;53.592;10.184;2022-09-03T08:35:06;101451.66;;;22.35;80.06
16016;BME280;8112;53.592;10.184;2022-09-03T08:40:09;101453.41;;;22.72;78.90
16016;BME280;8112;53.592;10.184;2022-09-03T08:45:14;101452.09;;;22.95;76.47
16016;BME280;8112;53.592;10.184;2022-09-03T08:50:22;101444.22;;;23.19;74.64
16016;BME280;8112;53.592;10.184;2022-09-03T08:55:27;101444.94;;;23.48;71.72
16016;BME280;8112;53.592;10.184;2022-09-03T09:00:41;101448.13;;;23.25;69.15
16016;BME280;8112;53.592;10.184;2022-09-03T09:05:54;101449.94;;;23.16;69.38
16016;BME280;8112;53.592;10.184;2022-09-03T09:11:04;101447.16;;;23.53;67.96
16016;BME280;8112;53.592;10.184;2022-09-03T09:16:14;101451.53;;;23.54;65.63
16016;BME280;8112;53.592;10.184;2022-09-03T09:21:22;101445.72;;;24.01;64.42
16016;BME280;8112;53.592;10.184;2022-09-03T09:26:28;101450.69;;;24.23;63.16
16016;BME280;8112;53.592;10.184;2022-09-03T09:31:31;101450.66;;;23.45;64.05
16016;BME280;8112;53.592;10.184;2022-09-03T09:36:41;101440.28;;;24.28;63.20
16016;BME280;8112;53.592;10.184;2022-09-03T09:41:58;101435.63;;;24.46;59.05
16016;BME280;8112;53.592;10.184;2022-09-03T09:47:06;101438.03;;;24.83;58.82
16016;BME280;8112;53.592;10.184;2022-09-03T09:52:12;101423.66;;;25.32;57.44
16016;BME280;8112;53.592;10.184;2022-09-03T09:57:15;101426.34;;;25.24;55.99
16016;BME280;8112;53.592;10.184;2022-09-03T10:02:22;101412.25;;;24.97;54.17
16016;BME280;8112;53.592;10.184;2022-09-03T10:07:29;101405.69;;;24.91;53.16
16016;BME280;8112;53.592;10.184;2022-09-03T10:12:35;101411.25;;;24.98;51.40
16016;BME280;8112;53.592;10.184;2022-09-03T10:17:48;101411.94;;;24.92;51.52
16016;BME280;8112;53.592;10.184;2022-09-03T10:22:56;101400.44;;;24.98;49.39
16016;BME280;8112;53.592;10.184;2022-09-03T10:28:00;101399.75;;;25.21;48.18
16016;BME280;8112;53.592;10.184;2022-09-03T10:33:09;101409.78;;;25.43;47.99
16016;BME280;8112;53.592;10.184;2022-09-03T10:38:24;101371.56;;;25.80;46.84
16016;BME280;8112;53.592;10.184;2022-09-03T10:43:44;101374.66;;;26.08;46.54
16016;BME280;8112;53.592;10.184;2022-09-03T10:49:14;101381.56;;;24.65;46.48
16016;BME280;8112;53.592;10.184;2022-09-03T10:54:36;101387.09;;;23.17;50.35
16016;BME280;8112;53.592;10.184;2022-09-03T10:59:51;101379.88;;;22.37;52.69
16016;BME280;8112;53.592;10.184;2022-09-03T11:05:01;101372.75;;;24.04;51.51
16016;BME280;8112;53.592;10.184;2022-09-03T11:10:15;101373.50;;;23.19;50.27
16016;BME280;8112;53.592;10.184;2022-09-03T11:15:23;101361.88;;;24.47;48.85
16016;BME280;8112;53.592;10.184;2022-09-03T11:20:28;101372.63;;;24.97;45.92
16016;BME280;8112;53.592;10.184;2022-09-03T11:25:34;101367.44;;;24.96;45.64
16016;BME280;8112;53.592;10.184;2022-09-03T11:30:45;101348.59;;;25.44;45.74
16016;BME280;8112;53.592;10.184;2022-09-03T11:35:55;101366.09;;;24.58;44.90
16016;BME280;8112;53.592;10.184;2022-09-03T11:41:09;101367.56;;;24.11;45.41
16016;BME280;8112;53.592;10.184;2022-09-03T11:46:26;101358.81;;;23.66;45.87
16016;BME280;8112;53.592;10.184;2022-09-03T11:51:31;101348.91;;;24.84;43.17
16016;BME280;8112;53.592;10.184;2022-09-03T11:56:36;101338.38;;;25.71;42.05
16016;BME280;8112;53.592;10.184;2022-09-03T12:01:39;101331.63;;;25.75;41.82
16016;BME280;8112;53.592;10.184;2022-09-03T12:07:11;101336.66;;;25.78;41.83
16016;BME280;8112;53.592;10.184;2022-09-03T12:12:35;101329.19;;;25.57;41.15
16016;BME280;8112;53.592;10.184;2022-09-03T12:17:47;101335.91;;;25.04;41.30
16016;BME280;8112;53.592;10.184;2022-09-03T12:23:13;101343.88;;;23.80;43.66
16016;BME280;8112;53.592;10.184;2022-09-03T12:28:28;101342.03;;;23.38;44.23
16016;BME280;8112;53.592;10.184;2022-09-03T12:33:32;101344.88;;;23.71;44.39
16016;BME280;8112;53.592;10.184;2022-09-03T12:38:35;101329.34;;;23.65;44.20
16016;BME280;8112;53.592;10.184;2022-09-03T12:43:38;101329.16;;;23.49;44.17
16016;BME280;8112;53.592;10.184;2022-09-03T12:48:46;101329.84;;;22.72;45.07
16016;BME280;8112;53.592;10.184;2022-09-03T12:53:52;101325.22;;;22.83;45.58
16016;BME280;8112;53.592;10.184;2022-09-03T12:58:59;101325.09;;;22.66;46.07
16016;BME280;8112;53.592;10.184;2022-09-03T13:04:05;101303.59;;;23.45;45.62
16016;BME280;8112;53.592;10.184;2022-09-03T13:09:09;101306.06;;;23.82;45.49
16016;BME280;8112;53.592;10.184;2022-09-03T13:14:13;101297.94;;;23.65;44.08
16016;BME280;8112;53.592;10.184;2022-09-03T13:19:21;101289.09;;;23.89;44.15
16016;BME280;8112;53.592;10.184;2022-09-03T13:30:04;101296.28;;;23.81;44.01
16016;BME280;8112;53.592;10.184;2022-09-03T13:35:11;101296.53;;;23.44;44.53
16016;BME280;8112;53.592;10.184;2022-09-03T13:40:21;101304.66;;;23.26;44.07
16016;BME280;8112;53.592;10.184;2022-09-03T13:45:34;101301.38;;;23.41;44.46
16016;BME280;8112;53.592;10.184;2022-09-03T13:50:41;101296.75;;;23.68;43.96
16016;BME280;8112;53.592;10.184;2022-09-03T13:55:46;101291.44;;;23.41;44.38
16016;BME280;8112;53.592;10.184;2022-09-03T14:00:53;101297.03;;;23.21;44.07
16016;BME280;8112;53.592;10.184;2022-09-03T14:06:09;101287.81;;;23.59;44.67
16016;BME280;8112;53.592;10.184;2022-09-03T14:11:21;101289.22;;;23.96;43.54
16016;BME280;8112;53.592;10.184;2022-09-03T14:16:33;101293.22;;;23.75;43.65
16016;BME280;8112;53.592;10.184;2022-09-03T14:21:42;101282.06;;;23.45;44.49
16016;BME280;8112;53.592;10.184;2022-09-03T14:26:50;101274.09;;;23.27;44.48
16016;BME280;8112;53.592;10.184;2022-09-03T14:32:23;101271.13;;;23.12;44.05
16016;BME280;8112;53.592;10.184;2022-09-03T14:37:45;101279.03;;;23.14;44.13
16016;BME280;8112;53.592;10.184;2022-09-03T14:43:01;101275.38;;;23.23;45.00
16016;BME280;8112;53.592;10.184;2022-09-03T14:48:24;101296.50;;;22.83;44.45
16016;BME280;8112;53.592;10.184;2022-09-03T14:53:47;101288.50;;;22.91;44.39
16016;BME280;8112;53.592;10.184;2022-09-03T14:59:09;101283.69;;;23.03;43.65
16016;BME280;8112;53.592;10.184;2022-09-03T15:04:44;101281.66;;;22.97;44.40
16016;BME280;8112;53.592;10.184;2022-09-03T15:09:55;101285.13;;;22.63;44.13
16016;BME280;8112;53.592;10.184;2022-09-03T15:15:09;101274.69;;;22.86;44.12
16016;BME280;8112;53.592;10.184;2022-09-03T15:20:20;101270.06;;;23.31;44.13
16016;BME280;8112;53.592;10.184;2022-09-03T15:25:31;101279.38;;;23.54;43.55
16016;BME280;8112;53.592;10.184;2022-09-03T15:30:44;101269.81;;;23.16;43.48
16016;BME280;8112;53.592;10.184;2022-09-03T15:36:08;101271.47;;;23.09;43.49
16016;BME280;8112;53.592;10.184;2022-09-03T15:41:39;101274.16;;;23.44;43.45
16016;BME280;8112;53.592;10.184;2022-09-03T15:46:52;101286.66;;;23.61;43.47
16016;BME280;8112;53.592;10.184;2022-09-03T15:52:07;101276.50;;;23.39;43.30
16016;BME280;8112;53.592;10.184;2022-09-03T15:57:14;101280.59;;;22.90;44.33
16016;BME280;8112;53.592;10.184;2022-09-03T16:02:22;101283.94;;;22.66;44.97
16016;BME280;8112;53.592;10.184;2022-09-03T16:07:37;101282.59;;;22.43;45.67
16016;BME280;8112;53.592;10.184;2022-09-03T16:12:48;101289.44;;;22.38;46.62
16016;BME280;8112;53.592;10.184;2022-09-03T16:18:02;101291.28;;;22.19;46.60
16016;BME280;8112;53.592;10.184;2022-09-03T16:23:11;101289.06;;;22.14;47.33
16016;BME280;8112;53.592;10.184;2022-09-03T16:28:18;101296.25;;;22.14;46.62
16016;BME280;8112;53.592;10.184;2022-09-03T16:33:33;101287.75;;;22.00;46.80
16016;BME280;8112;53.592;10.184;2022-09-03T16:38:45;101295.88;;;21.90;47.71
16016;BME280;8112;53.592;10.184;2022-09-03T16:43:58;101291.41;;;21.81;46.97
16016;BME280;8112;53.592;10.184;2022-09-03T16:49:14;101284.53;;;21.78;47.36
16016;BME280;8112;53.592;10.184;2022-09-03T16:54:34;101296.44;;;21.66;48.07
16016;BME280;8112;53.592;10.184;2022-09-03T16:59:57;101293.09;;;21.54;48.45
16016;BME280;8112;53.592;10.184;2022-09-03T17:05:13;101298.06;;;21.49;49.13
16016;BME280;8112;53.592;10.184;2022-09-03T17:10:23;101292.47;;;21.42;49.78
16016;BME280;8112;53.592;10.184;2022-09-03T17:15:33;101301.97;;;21.27;49.87
16016;BME280;8112;53.592;10.184;2022-09-03T17:20:48;101293.81;;;21.18;50.44
16016;BME280;8112;53.592;10.184;2022-09-03T17:25:57;101291.88;;;21.11;51.35
16016;BME280;8112;53.592;10.184;2022-09-03T17:31:09;101296.56;;;20.99;50.89
16016;BME280;8112;53.592;10.184;2022-09-03T17:36:17;101298.16;;;20.91;51.67
16016;BME280;8112;53.592;10.184;2022-09-03T17:41:29;101316.31;;;20.78;52.59
16016;BME280;8112;53.592;10.184;2022-09-03T17:46:40;101313.78;;;20.67;52.64
16016;BME280;8112;53.592;10.184;2022-09-03T17:51:48;101317.63;;;20.54;53.70
16016;BME280;8112;53.592;10.184;2022-09-03T17:56:59;101330.31;;;20.52;54.40
16016;BME280;8112;53.592;10.184;2022-09-03T18:02:09;101338.34;;;20.42;54.96
16016;BME280;8112;53.592;10.184;2022-09-03T18:07:22;101338.47;;;20.31;55.51
16016;BME280;8112;53.592;10.184;2022-09-03T18:12:37;101346.22;;;20.24;56.73
16016;BME280;8112;53.592;10.184;2022-09-03T18:17:45;101354.63;;;20.10;57.84
16016;BME280;8112;53.592;10.184;2022-09-03T18:22:55;101358.31;;;20.08;58.03
16016;BME280;8112;53.592;10.184;2022-09-03T18:28:24;101369.97;;;19.98;59.32
16016;BME280;8112;53.592;10.184;2022-09-03T18:33:46;101370.78;;;19.88;60.27
16016;BME280;8112;53.592;10.184;2022-09-03T18:39:11;101383.41;;;19.76;61.75
16016;BME280;8112;53.592;10.184;2022-09-03T18:44:44;101383.88;;;19.60;63.43
16016;BME280;8112;53.592;10.184;2022-09-03T18:50:12;101394.81;;;19.47;65.10
16016;BME280;8112;53.592;10.184;2022-09-03T18:55:44;101399.84;;;19.41;66.00
16016;BME280;8112;53.592;10.184;2022-09-03T19:01:13;101402.63;;;19.39;66.69
16016;BME280;8112;53.592;10.184;2022-09-03T19:06:47;101404.28;;;19.30;68.57
16016;BME280;8112;53.592;10.184;2022-09-03T19:12:22;101406.16;;;19.18;69.07
16016;BME280;8112;53.592;10.184;2022-09-03T19:18:07;101409.25;;;19.14;70.44
16016;BME280;8112;53.592;10.184;2022-09-03T19:23:26;101408.94;;;19.07;72.12
16016;BME280;8112;53.592;10.184;2022-09-03T19:28:46;101411.00;;;18.92;73.97
16016;BME280;8112;53.592;10.184;2022-09-03T19:34:16;101414.66;;;18.91;74.43
16016;BME280;8112;53.592;10.184;2022-09-03T19:39:55;101410.72;;;18.85;74.92
16016;BME280;8112;53.592;10.184;2022-09-03T19:45:21;101406.91;;;18.66;76.41
16016;BME280;8112;53.592;10.184;2022-09-03T19:50:56;101413.84;;;18.58;76.34
16016;BME280;8112;53.592;10.184;2022-09-03T19:56:21;101418.94;;;18.61;78.23
16016;BME280;8112;53.592;10.184;2022-09-03T20:01:43;101414.44;;;18.61;79.15
16016;BME280;8112;53.592;10.184;2022-09-03T20:07:10;101421.75;;;18.48;81.08
16016;BME280;8112;53.592;10.184;2022-09-03T20:12:32;101421.31;;;18.31;81.50
16016;BME280;8112;53.592;10.184;2022-09-03T20:17:38;101433.19;;;18.27;82.98
16016;BME280;8112;53.592;10.184;2022-09-03T20:22:51;101438.06;;;18.22;82.79
16016;BME280;8112;53.592;10.184;2022-09-03T20:28:01;101439.16;;;18.19;83.97
16016;BME280;8112;53.592;10.184;2022-09-03T20:33:17;101443.28;;;18.12;85.05
16016;BME280;8112;53.592;10.184;2022-09-03T20:38:34;101449.69;;;17.98;86.87
16016;BME280;8112;53.592;10.184;2022-09-03T20:43:53;101450.69;;;17.97;89.13
16016;BME280;8112;53.592;10.184;2022-09-03T20:49:02;101451.63;;;17.85;90.31
16016;BME280;8112;53.592;10.184;2022-09-03T20:54:13;101458.66;;;17.74;92.54
16016;BME280;8112;53.592;10.184;2022-09-03T20:59:30;101458.50;;;17.64;94.84
16016;BME280;8112;53.592;10.184;2022-09-03T21:04:42;101447.50;;;17.58;97.30
16016;BME280;8112;53.592;10.184;2022-09-03T21:09:56;101453.56;;;17.60;100.00
16016;BME280;8112;53.592;10.184;2022-09-03T21:15:08;101461.91;;;17.55;100.00
16016;BME280;8112;53.592;10.184;2022-09-03T21:20:21;101454.53;;;17.59;100.00
16016;BME280;8112;53.592;10.184;2022-09-03T21:25:29;101466.38;;;17.55;100.00
16016;BME280;8112;53.592;10.184;2022-09-03T21:30:36;101469.53;;;17.48;100.00
16016;BME280;8112;53.592;10.184;2022-09-03T21:35:44;101477.28;;;17.40;100.00
16016;BME280;8112;53.592;10.184;2022-09-03T21:40:56;101472.38;;;17.34;100.00
16016;BME280;8112;53.592;10.184;2022-09-03T21:46:04;101484.25;;;17.30;100.00
16016;BME280;8112;53.592;10.184;2022-09-03T21:51:13;101485.47;;;17.26;100.00
16016;BME280;8112;53.592;10.184;2022-09-03T22:02:20;101480.06;;;17.14;100.00
16016;BME280;8112;53.592;10.184;2022-09-03T22:07:37;101490.25;;;17.09;100.00
16016;BME280;8112;53.592;10.184;2022-09-03T22:12:42;101494.50;;;17.12;100.00
16016;BME280;8112;53.592;10.184;2022-09-03T22:17:50;101488.31;;;17.11;100.00
16016;BME280;8112;53.592;10.184;2022-09-03T22:23:01;101490.00;;;17.12;100.00
16016;BME280;8112;53.592;10.184;2022-09-03T22:28:09;101485.88;;;17.08;100.00
16016;BME280;8112;53.592;10.184;2022-09-03T22:33:23;101496.34;;;16.98;100.00
16016;BME280;8112;53.592;10.184;2022-09-03T22:44:10;101487.47;;;16.98;100.00
16016;BME280;8112;53.592;10.184;2022-09-03T22:49:27;101491.06;;;16.85;100.00
16016;BME280;8112;53.592;10.184;2022-09-03T22:54:41;101485.28;;;16.91;100.00
16016;BME280;8112;53.592;10.184;2022-09-03T22:59:51;101486.59;;;16.86;100.00
16016;BME280;8112;53.592;10.184;2022-09-03T23:05:02;101490.78;;;16.77;100.00
16016;BME280;8112;53.592;10.184;2022-09-03T23:10:09;101487.84;;;16.69;100.00
16016;BME280;8112;53.592;10.184;2022-09-03T23:15:15;101504.41;;;16.72;100.00
16016;BME280;8112;53.592;10.184;2022-09-03T23:20:24;101491.47;;;16.67;100.00
16016;BME280;8112;53.592;10.184;2022-09-03T23:25:29;101490.91;;;16.75;100.00
16016;BME280;8112;53.592;10.184;2022-09-03T23:30:32;101494.16;;;16.79;100.00
16016;BME280;8112;53.592;10.184;2022-09-03T23:35:42;101493.34;;;16.78;100.00
16016;BME280;8112;53.592;10.184;2022-09-03T23:40:47;101502.28;;;16.77;100.00
16016;BME280;8112;53.592;10.184;2022-09-03T23:45:56;101496.44;;;16.72;100.00
16016;BME280;8112;53.592;10.184;2022-09-03T23:51:08;101498.59;;;16.67;100.00
16016;BME280;8112;53.592;10.184;2022-09-03T23:56:27;101499.13;;;16.59;100.00
